Time;durP1;ratioP1;P1;durP2;ratioP2;P2;SDS_P1;SDS_P2;PMS_P1;PMS_P2;Temp;Humidity;BMP_temperature;BMP_pressure;BME280_temperature;BME280_humidity;BME280_pressure;Samples;Min_cycle;Max_cycle;Signal;HPM_P1;HPM_P2
2023/03/26 00:04:38;;;;;;;14.45;6.88;;;;;;;1.29;93.50;99140.88;10443757;28;20953;-79
2023/03/26 00:09:40;;;;;;;11.07;7.22;;;;;;;1.33;93.56;99139.28;10444890;28;20049;-79
2023/03/26 00:14:42;;;;;;;10.65;6.40;;;;;;;1.34;93.35;99132.81;10426886;28;20056;-78
2023/03/26 00:19:44;;;;;;;12.60;7.70;;;;;;;1.37;93.33;99116.06;10452217;28;20432;-78
2023/03/26 00:24:50;;;;;;;11.90;7.03;;;;;;;1.39;93.03;99107.72;10452583;28;20042;-79
2023/03/26 00:29:55;;;;;;;11.80;5.55;;;;;;;1.34;93.23;99102.28;10452140;28;20049;-79
2023/03/26 00:34:57;;;;;;;9.43;6.00;;;;;;;1.20;93.88;99104.59;10468348;28;20052;-77
2023/03/26 00:40:05;;;;;;;10.27;5.35;;;;;;;1.28;94.09;99133.03;10442161;28;20048;-77
2023/03/26 00:45:08;;;;;;;9.05;4.80;;;;;;;1.47;94.58;99135.09;10443992;28;20037;-78
2023/03/26 00:50:14;;;;;;;12.25;5.60;;;;;;;1.78;94.96;99124.50;10448411;28;20426;-77
2023/03/26 00:55:17;;;;;;;8.82;5.22;;;;;;;1.58;94.71;99133.28;10449887;28;20041;-80
2023/03/26 01:00:27;;;;;;;8.95;5.38;;;;;;;1.69;94.21;99121.44;10450982;28;20413;-79
2023/03/26 01:05:32;;;;;;;9.68;5.72;;;;;;;1.75;94.61;99125.03;10450227;28;20405;-79
2023/03/26 01:10:37;;;;;;;7.82;4.93;;;;;;;1.60;95.47;99122.22;10446749;28;20057;-79
2023/03/26 01:15:40;;;;;;;7.57;5.03;;;;;;;1.64;95.12;99123.31;10442349;28;20048;-79
2023/03/26 01:20:45;;;;;;;10.32;5.57;;;;;;;1.67;95.73;99122.78;10444991;28;20037;-79
2023/03/26 01:25:55;;;;;;;8.07;5.15;;;;;;;1.71;95.74;99113.91;10445134;28;20045;-78
2023/03/26 01:31:12;;;;;;;9.02;5.97;;;;;;;1.63;96.21;99110.88;10445242;28;20045;-79
2023/03/26 01:36:22;;;;;;;12.25;6.28;;;;;;;1.39;96.88;99095.03;10445953;28;20060;-79
2023/03/26 01:41:36;;;;;;;11.63;6.35;;;;;;;1.22;97.29;99080.84;10445059;28;20040;-79
2023/03/26 01:46:39;;;;;;;12.40;6.05;;;;;;;1.15;98.20;99082.94;10433929;28;20179;-80
2023/03/26 01:51:42;;;;;;;12.25;6.03;;;;;;;1.10;99.10;99072.91;10429270;28;20076;-79
2023/03/26 01:56:57;;;;;;;10.07;6.15;;;;;;;1.18;98.90;99077.03;10446919;28;20045;-79
2023/03/26 02:02:20;;;;;;;11.52;6.40;;;;;;;1.13;99.85;99067.00;10438692;28;20141;-79
2023/03/26 02:07:36;;;;;;;10.27;6.65;;;;;;;1.36;100.00;99079.31;10468191;28;20041;-79
2023/03/26 02:12:40;;;;;;;14.10;5.97;;;;;;;1.75;100.00;99084.47;10427218;28;20065;-79
2023/03/26 02:17:42;;;;;;;12.00;6.22;;;;;;;1.72;100.00;99084.97;10437567;28;20044;-78
2023/03/26 02:22:46;;;;;;;12.18;6.15;;;;;;;1.77;100.00;99085.81;10471855;28;20045;-79
2023/03/26 02:27:51;;;;;;;11.70;6.15;;;;;;;1.79;100.00;99093.69;10392916;28;20049;-79
2023/03/26 02:32:54;;;;;;;10.57;5.78;;;;;;;2.03;100.00;99089.47;10425951;28;20037;-79
2023/03/26 02:37:58;;;;;;;10.98;6.22;;;;;;;2.06;100.00;99088.13;10445886;28;20049;-79
2023/03/26 02:43:00;;;;;;;12.48;6.80;;;;;;;2.02;100.00;99082.44;10445051;28;20043;-79
2023/03/26 02:48:05;;;;;;;10.05;5.75;;;;;;;2.01;100.00;99088.91;10445749;28;20048;-79
2023/03/26 02:53:29;;;;;;;10.18;6.15;;;;;;;2.11;100.00;99091.69;10444615;28;20049;-79
2023/03/26 02:58:46;;;;;;;13.48;6.68;;;;;;;2.15;100.00;99081.16;10445159;28;20056;-79
2023/03/26 03:03:49;;;;;;;10.32;5.72;;;;;;;2.39;99.98;99070.66;10442302;28;20049;-78
2023/03/26 03:09:01;;;;;;;9.85;5.80;;;;;;;2.42;100.00;99064.72;10443306;28;20052;-77
2023/03/26 03:14:12;;;;;;;12.85;6.72;;;;;;;2.51;100.00;99068.53;10430096;28;20048;-77
2023/03/26 03:19:15;;;;;;;8.80;5.55;;;;;;;2.71;100.00;99063.16;10426641;28;20048;-78
2023/03/26 03:24:17;;;;;;;11.80;5.70;;;;;;;2.92;99.89;99064.00;10442980;28;20525;-78
2023/03/26 03:29:22;;;;;;;13.07;5.53;;;;;;;2.95;99.03;99060.78;10443838;28;20057;-78
2023/03/26 03:34:25;;;;;;;9.18;5.57;;;;;;;3.01;98.64;99065.09;10441880;28;20048;-78
2023/03/26 03:39:27;;;;;;;9.90;5.95;;;;;;;3.07;97.58;99065.91;10443855;28;20052;-77
2023/03/26 03:44:30;;;;;;;10.05;6.10;;;;;;;3.11;97.58;99066.19;10465639;28;20046;-78
2023/03/26 03:49:33;;;;;;;12.98;6.22;;;;;;;3.03;97.56;99062.13;10442203;28;20153;-78
2023/03/26 03:54:35;;;;;;;12.15;5.75;;;;;;;2.97;96.76;99063.22;10444857;28;20033;-78
2023/03/26 03:59:57;;;;;;;8.13;5.18;;;;;;;3.01;97.46;99070.53;10450606;28;20056;-79
2023/03/26 04:05:02;;;;;;;9.15;5.63;;;;;;;2.96;96.97;99070.53;10440795;28;20476;-79
2023/03/26 04:10:08;;;;;;;10.40;5.90;;;;;;;3.09;97.47;99069.16;10472179;28;20041;-79
2023/03/26 04:15:34;;;;;;;9.35;5.22;;;;;;;3.21;97.44;99067.00;10449653;28;20040;-79
2023/03/26 04:20:40;;;;;;;11.05;5.85;;;;;;;3.24;96.87;99065.66;10450549;28;20049;-79
2023/03/26 04:25:48;;;;;;;9.48;5.97;;;;;;;3.22;97.31;99068.63;10446544;28;20052;-78
2023/03/26 04:30:55;;;;;;;10.80;5.40;;;;;;;3.15;97.32;99062.69;10441613;28;20048;-78
2023/03/26 04:36:09;;;;;;;12.38;7.03;;;;;;;3.16;96.95;99063.50;10429446;28;20041;-78
2023/03/26 04:41:13;;;;;;;11.07;6.28;;;;;;;3.17;97.38;99068.63;10417067;28;20046;-78
2023/03/26 04:46:25;;;;;;;11.60;6.20;;;;;;;3.19;96.38;99073.78;10452916;28;20038;-78
2023/03/26 04:51:40;;;;;;;9.93;5.70;;;;;;;3.17;95.95;99076.78;10450131;28;20053;-80
2023/03/26 04:56:58;;;;;;;12.30;6.07;;;;;;;3.18;96.34;99083.81;10419463;28;20041;-80
2023/03/26 05:02:25;;;;;;;10.65;6.03;;;;;;;2.93;96.52;99073.75;10442226;28;20134;-78
2023/03/26 05:07:30;;;;;;;10.63;6.78;;;;;;;2.69;96.76;99075.34;10455611;28;20041;-79
2023/03/26 05:12:35;;;;;;;13.30;7.10;;;;;;;2.37;96.50;99073.63;10448118;28;20042;-79
2023/03/26 05:17:42;;;;;;;11.80;6.80;;;;;;;2.23;97.02;99082.50;10447365;28;20045;-80
2023/03/26 05:22:52;;;;;;;15.48;7.53;;;;;;;1.99;97.67;99085.66;10447564;28;20048;-79
2023/03/26 05:28:00;;;;;;;13.50;7.68;;;;;;;1.87;98.23;99087.75;10448232;28;20053;-78
2023/03/26 05:33:10;;;;;;;12.75;7.80;;;;;;;1.78;98.83;99092.06;10445102;28;20040;-79
2023/03/26 05:38:24;;;;;;;14.13;7.55;;;;;;;1.62;98.61;99077.63;10447434;28;20037;-78
2023/03/26 05:43:27;;;;;;;9.52;4.28;;;;;;;1.61;99.34;99094.09;10446946;28;20056;-79
2023/03/26 05:48:42;;;;;;;15.35;6.70;;;;;;;1.56;100.00;99100.25;10419368;28;20045;-79
2023/03/26 05:53:46;;;;;;;12.68;6.40;;;;;;;1.54;100.00;99096.19;10446043;28;20060;-78
2023/03/26 05:59:17;;;;;;;14.02;7.97;;;;;;;1.39;100.00;99105.00;10445958;28;20057;-79
2023/03/26 06:04:27;;;;;;;12.00;6.45;;;;;;;1.34;100.00;99103.09;10449608;28;20043;-79
2023/03/26 06:09:48;;;;;;;14.85;6.78;;;;;;;1.36;100.00;99095.53;10446748;28;20052;-78
2023/03/26 06:14:50;;;;;;;10.93;6.50;;;;;;;1.37;100.00;99102.56;10458094;28;20052;-78
2023/03/26 06:20:05;;;;;;;13.57;5.07;;;;;;;1.28;100.00;99109.53;10464457;28;20041;-79
2023/03/26 06:25:15;;;;;;;12.15;5.63;;;;;;;1.28;100.00;99117.66;10444572;28;20034;-79
2023/03/26 06:30:58;;;;;;;9.80;5.03;;;;;;;1.31;100.00;99122.53;10450403;28;20041;-79
2023/03/26 06:36:10;;;;;;;11.27;5.78;;;;;;;1.21;100.00;99111.63;10420533;28;20362;-84
2023/03/26 06:41:13;;;;;;;9.23;4.75;;;;;;;1.13;100.00;99110.22;10449755;28;20045;-78
2023/03/26 06:46:33;;;;;;;9.68;5.30;;;;;;;1.01;100.00;99128.47;10447368;28;20044;-78
2023/03/26 06:51:54;;;;;;;9.93;4.05;;;;;;;0.98;100.00;99109.25;10446264;28;20057;-79
2023/03/26 06:57:14;;;;;;;6.93;3.25;;;;;;;0.88;100.00;99126.19;10442897;28;20063;-79
2023/03/26 07:02:43;;;;;;;6.25;3.72;;;;;;;0.84;100.00;99130.44;10439030;28;20056;-80
2023/03/26 07:08:05;;;;;;;6.60;3.40;;;;;;;0.76;100.00;99123.63;10443325;28;20041;-79
2023/03/26 07:13:26;;;;;;;8.10;3.55;;;;;;;0.84;100.00;99135.84;10454604;28;20064;-79
2023/03/26 07:18:47;;;;;;;6.68;2.67;;;;;;;0.85;100.00;99127.50;10454594;28;20052;-79
2023/03/26 07:23:55;;;;;;;4.30;2.35;;;;;;;0.82;100.00;99136.13;10443966;28;20045;-79
2023/03/26 07:29:33;;;;;;;3.78;2.63;;;;;;;0.85;100.00;99143.69;10446819;28;20080;-79
2023/03/26 07:34:47;;;;;;;4.65;2.55;;;;;;;0.81;100.00;99147.97;10444739;28;20056;-78
2023/03/26 07:40:12;;;;;;;6.30;2.80;;;;;;;0.88;100.00;99148.63;10450363;28;20048;-79
2023/03/26 07:45:38;;;;;;;5.45;3.05;;;;;;;0.87;100.00;99147.00;10447645;28;20048;-79
2023/03/26 07:50:53;;;;;;;4.45;2.63;;;;;;;0.92;100.00;99137.31;10441081;28;20045;-79
2023/03/26 07:56:31;;;;;;;6.18;2.60;;;;;;;0.84;100.00;99133.16;10425860;28;20041;-79
2023/03/26 08:02:15;;;;;;;9.35;2.20;;;;;;;0.79;100.00;99133.94;10438650;28;20053;-78
2023/03/26 08:07:30;;;;;;;3.25;1.90;;;;;;;0.82;100.00;99138.81;10410961;28;20056;-80
2023/03/26 08:13:16;;;;;;;2.17;1.80;;;;;;;0.89;100.00;99142.16;10425895;28;20413;-79
2023/03/26 08:18:50;;;;;;;2.88;2.35;;;;;;;0.86;100.00;99145.31;10435614;28;20037;-78
2023/03/26 08:24:15;;;;;;;3.55;1.75;;;;;;;0.92;100.00;99145.41;10443308;28;20048;-79
2023/03/26 08:30:01;;;;;;;3.85;2.30;;;;;;;0.98;100.00;99141.66;10428675;28;20516;-79
2023/03/26 08:35:03;;;;;;;5.60;2.35;;;;;;;0.95;100.00;99158.38;10446687;28;20065;-80
2023/03/26 08:40:06;;;;;;;3.53;2.67;;;;;;;0.86;100.00;99158.00;10431225;28;20052;-80
2023/03/26 08:45:08;;;;;;;4.38;2.67;;;;;;;0.90;100.00;99169.97;10441688;28;20045;-80
2023/03/26 08:50:48;;;;;;;3.45;2.60;;;;;;;0.88;100.00;99164.00;10450893;28;20053;-79
2023/03/26 08:55:55;;;;;;;5.68;2.67;;;;;;;1.03;100.00;99174.94;10449245;28;20428;-80
2023/03/26 09:01:28;;;;;;;3.80;3.00;;;;;;;1.01;100.00;99178.97;10422067;28;20053;-78
2023/03/26 09:06:49;;;;;;;13.57;3.25;;;;;;;1.01;100.00;99173.56;10439759;28;20052;-80
2023/03/26 09:12:28;;;;;;;4.10;2.58;;;;;;;0.96;100.00;99168.94;10449907;28;20072;-79
2023/03/26 09:17:52;;;;;;;2.58;2.20;;;;;;;0.99;100.00;99170.31;10457345;28;20048;-78
2023/03/26 09:23:22;;;;;;;2.75;2.20;;;;;;;0.96;100.00;99162.72;10434587;28;20041;-79
2023/03/26 09:28:25;;;;;;;1.95;1.70;;;;;;;0.98;100.00;99169.50;10443490;28;20037;-79
2023/03/26 09:33:27;;;;;;;2.63;2.10;;;;;;;1.06;100.00;99176.34;10450656;28;20548;-79
2023/03/26 09:38:35;;;;;;;3.05;1.60;;;;;;;1.08;100.00;99174.19;10455117;28;20044;-79
2023/03/26 09:44:15;;;;;;;2.05;1.80;;;;;;;1.14;100.00;99173.97;10453944;28;20057;-80
2023/03/26 09:49:21;;;;;;;9.65;2.30;;;;;;;1.09;100.00;99182.03;10432653;28;20045;-81
2023/03/26 09:54:35;;;;;;;2.50;1.60;;;;;;;1.01;100.00;99178.97;10460709;28;20048;-81
2023/03/26 09:59:52;;;;;;;1.85;1.70;;;;;;;1.01;100.00;99181.66;10456673;28;20045;-79
2023/03/26 10:04:58;;;;;;;2.00;1.80;;;;;;;1.10;100.00;99175.56;10426215;28;20045;-79
2023/03/26 10:10:08;;;;;;;2.38;1.90;;;;;;;1.20;100.00;99185.66;10469005;28;20045;-79
2023/03/26 10:15:41;;;;;;;2.70;2.00;;;;;;;1.25;100.00;99191.13;10431615;28;20037;-81
2023/03/26 10:21:35;;;;;;;3.20;2.20;;;;;;;1.29;100.00;99194.13;10438327;28;20551;-81
2023/03/26 10:26:41;;;;;;;4.53;1.67;;;;;;;1.16;100.00;99187.22;10434027;28;20065;-78
2023/03/26 10:31:56;;;;;;;1.65;1.55;;;;;;;1.17;100.00;99183.47;10463649;28;20059;-79
2023/03/26 10:37:15;;;;;;;4.30;2.25;;;;;;;1.19;100.00;99184.00;10457866;28;20045;-78
2023/03/26 10:42:30;;;;;;;2.10;1.80;;;;;;;1.25;100.00;99180.31;10459603;28;20040;-81
2023/03/26 10:48:03;;;;;;;1.90;1.60;;;;;;;1.38;100.00;99177.16;10429951;28;20045;-80
2023/03/26 10:53:35;;;;;;;3.30;2.05;;;;;;;1.32;100.00;99178.19;10487115;28;20596;-83
2023/03/26 10:58:39;;;;;;;4.03;2.15;;;;;;;1.40;100.00;99180.44;10449756;28;20512;-80
2023/03/26 11:03:50;;;;;;;2.28;2.00;;;;;;;1.51;100.00;99186.75;10445629;28;20040;-81
2023/03/26 11:09:12;;;;;;;2.35;2.15;;;;;;;1.50;100.00;99190.50;10445395;28;20099;-81
2023/03/26 11:14:15;;;;;;;3.50;2.10;;;;;;;1.51;99.42;99187.56;10447418;28;20476;-80
2023/03/26 11:19:34;;;;;;;2.30;2.10;;;;;;;1.52;99.64;99193.78;10465227;28;20228;-80
2023/03/26 11:24:48;;;;;;;2.30;2.10;;;;;;;1.53;99.18;99200.81;10485323;28;20049;-81
2023/03/26 11:30:27;;;;;;;3.00;2.70;;;;;;;1.53;98.41;99208.91;10467477;28;20045;-80
2023/03/26 11:35:32;;;;;;;2.90;2.23;;;;;;;1.42;98.58;99205.31;10424566;28;20056;-81
2023/03/26 11:40:40;;;;;;;3.30;2.50;;;;;;;1.45;98.80;99207.50;10436840;28;20472;-81
2023/03/26 11:45:44;;;;;;;3.40;2.25;;;;;;;1.44;99.15;99208.59;10413557;28;20037;-81
2023/03/26 11:50:51;;;;;;;3.08;2.60;;;;;;;1.40;99.00;99202.06;10416076;28;20052;-80
2023/03/26 11:56:02;;;;;;;2.88;2.08;;;;;;;1.31;99.08;99197.38;10443678;28;20318;-82
2023/03/26 12:01:14;;;;;;;3.75;2.40;;;;;;;1.36;99.29;99209.03;10411459;28;20051;-80
2023/03/26 12:06:24;;;;;;;2.70;2.20;;;;;;;1.27;99.38;99205.19;10441095;28;20048;-82
2023/03/26 12:11:30;;;;;;;2.60;2.25;;;;;;;1.21;99.28;99211.59;10427962;28;20052;-81
2023/03/26 12:16:34;;;;;;;2.10;1.90;;;;;;;1.11;99.21;99206.91;10447378;28;20042;-80
2023/03/26 12:21:45;;;;;;;4.07;2.33;;;;;;;1.09;100.00;99219.88;10426514;28;20037;-79
2023/03/26 12:26:56;;;;;;;2.65;2.30;;;;;;;0.94;99.75;99206.19;10440530;28;20056;-78
2023/03/26 12:32:14;;;;;;;2.35;2.15;;;;;;;0.97;99.61;99218.38;10420005;28;20049;-80
2023/03/26 12:37:37;;;;;;;3.05;2.10;;;;;;;0.95;99.57;99215.09;10410930;28;20409;-81
2023/03/26 12:42:40;;;;;;;2.63;2.42;;;;;;;0.93;99.70;99220.75;10483373;28;20504;-81
2023/03/26 12:47:42;;;;;;;1.98;1.70;;;;;;;0.87;99.35;99213.69;10455710;28;20045;-80
2023/03/26 12:53:03;;;;;;;2.25;1.90;;;;;;;0.77;98.34;99210.84;10456641;28;20049;-78
2023/03/26 12:58:14;;;;;;;2.95;1.50;;;;;;;0.80;97.87;99205.75;10424641;28;20056;-80
2023/03/26 13:03:36;;;;;;;3.08;1.52;;;;;;;0.83;98.17;99207.94;10444165;28;20060;-79
2023/03/26 13:09:18;;;;;;;3.10;1.70;;;;;;;0.86;98.17;99212.84;10415209;28;20583;-80
2023/03/26 13:14:38;;;;;;;3.55;2.30;;;;;;;0.90;98.54;99216.69;10447883;28;20052;-82
2023/03/26 13:20:06;;;;;;;1.80;1.70;;;;;;;0.82;97.88;99210.91;10448527;28;20404;-80
2023/03/26 13:25:28;;;;;;;3.40;1.70;;;;;;;0.84;98.13;99212.28;10448103;28;20048;-80
2023/03/26 13:30:48;;;;;;;2.28;1.95;;;;;;;0.86;98.72;99209.31;10449823;28;20060;-79
2023/03/26 13:36:12;;;;;;;1.83;1.40;;;;;;;0.76;98.93;99215.44;10446939;28;20046;-80
2023/03/26 13:41:20;;;;;;;1.20;1.10;;;;;;;0.63;98.59;99215.81;10435944;28;20056;-80
2023/03/26 13:46:29;;;;;;;2.00;1.50;;;;;;;0.53;99.38;99218.41;10447169;28;20033;-80
2023/03/26 13:51:42;;;;;;;1.05;0.95;;;;;;;0.49;99.46;99214.53;10424153;28;20409;-80
2023/03/26 13:56:57;;;;;;;1.58;1.20;;;;;;;0.52;100.00;99216.72;10425834;28;20048;-79
2023/03/26 14:02:06;;;;;;;2.65;1.30;;;;;;;0.52;100.00;99214.03;10444400;28;20448;-79
2023/03/26 14:07:23;;;;;;;1.35;1.00;;;;;;;0.51;100.00;99207.00;10444397;28;20045;-79
2023/03/26 14:12:48;;;;;;;1.42;1.13;;;;;;;0.44;100.00;99209.91;10444319;28;20046;-79
2023/03/26 14:18:05;;;;;;;0.70;0.70;;;;;;;0.34;100.00;99207.06;10422962;28;20056;-78
2023/03/26 14:23:29;;;;;;;1.80;0.80;;;;;;;0.30;100.00;99212.16;10467766;28;20041;-79
2023/03/26 14:28:55;;;;;;;1.23;1.13;;;;;;;0.28;100.00;99225.06;10446871;28;20171;-80
2023/03/26 14:34:10;;;;;;;1.65;1.13;;;;;;;0.17;100.00;99228.66;10446880;28;20056;-80
2023/03/26 14:39:40;;;;;;;2.20;0.90;;;;;;;0.08;100.00;99230.19;10438860;28;20056;-80
2023/03/26 14:45:12;;;;;;;1.40;1.25;;;;;;;-0.01;100.00;99201.97;10441882;28;20029;-79
2023/03/26 14:50:30;;;;;;;1.67;1.05;;;;;;;0.00;100.00;99206.34;10415850;28;20417;-80
2023/03/26 14:55:50;;;;;;;1.48;1.00;;;;;;;-0.07;100.00;99233.44;10425346;28;20056;-81
2023/03/26 15:01:14;;;;;;;1.85;1.10;;;;;;;-0.12;100.00;99230.69;10444182;28;20041;-81
2023/03/26 15:07:00;;;;;;;1.27;1.17;;;;;;;-0.20;100.00;99231.09;10443094;28;20105;-80
2023/03/26 15:12:11;;;;;;;1.10;0.98;;;;;;;-0.32;100.00;99223.09;10444333;28;20481;-81
2023/03/26 15:17:45;;;;;;;1.00;0.80;;;;;;;-0.36;100.00;99237.28;10443394;28;20132;-81
2023/03/26 15:23:25;;;;;;;0.95;0.75;;;;;;;-0.44;100.00;99227.75;10450766;28;20052;-80
2023/03/26 15:28:42;;;;;;;2.10;1.05;;;;;;;-0.52;100.00;99240.78;10454717;28;20325;-81
2023/03/26 15:34:22;;;;;;;0.80;0.73;;;;;;;-0.59;100.00;99224.78;10445072;28;20045;-80
2023/03/26 15:40:06;;;;;;;1.65;1.10;;;;;;;-0.65;100.00;99225.75;10437800;28;20056;-79
2023/03/26 15:45:35;;;;;;;1.10;1.00;;;;;;;-0.75;100.00;99237.16;10437698;28;20052;-81
2023/03/26 15:51:11;;;;;;;2.28;1.38;;;;;;;-0.81;100.00;99243.53;10441315;28;20052;-81
2023/03/26 15:56:26;;;;;;;1.35;1.00;;;;;;;-0.92;100.00;99231.72;10440048;28;20445;-80
2023/03/26 16:02:01;;;;;;;1.70;1.10;;;;;;;-0.94;100.00;99244.63;10406307;28;20040;-78
2023/03/26 16:07:18;;;;;;;1.50;1.15;;;;;;;-0.96;100.00;99238.66;10447541;28;20045;-81
2023/03/26 16:12:31;;;;;;;1.83;1.20;;;;;;;-0.93;100.00;99245.44;10452301;28;20421;-81
2023/03/26 16:18:03;;;;;;;1.13;1.00;;;;;;;-0.97;100.00;99242.41;10427607;28;20049;-81
2023/03/26 16:23:33;;;;;;;1.02;0.93;;;;;;;-0.96;100.00;99244.03;10437931;28;20053;-79
2023/03/26 16:28:59;;;;;;;1.42;1.23;;;;;;;-0.98;100.00;99253.44;10440799;28;20056;-80
2023/03/26 16:34:05;;;;;;;1.95;1.30;;;;;;;-1.05;100.00;99248.16;10436945;28;20037;-80
2023/03/26 16:39:09;;;;;;;1.70;1.27;;;;;;;-1.06;100.00;99251.91;10439787;28;20041;-81
2023/03/26 16:44:15;;;;;;;0.60;0.60;;;;;;;-1.06;100.00;99251.91;10450773;28;20500;-80
2023/03/26 16:49:41;;;;;;;1.10;0.82;;;;;;;-1.12;100.00;99274.41;10456774;28;20037;-80
2023/03/26 16:55:02;;;;;;;1.40;1.10;;;;;;;-1.11;100.00;99259.09;10431182;28;20049;-79
2023/03/26 17:00:22;;;;;;;0.90;0.70;;;;;;;-1.15;100.00;99264.13;10450701;28;20049;-80
2023/03/26 17:05:42;;;;;;;0.95;0.82;;;;;;;-1.18;100.00;99266.50;10458415;28;20041;-80
2023/03/26 17:11:03;;;;;;;1.35;1.00;;;;;;;-1.18;100.00;99269.19;10443979;28;20045;-81
2023/03/26 17:16:17;;;;;;;1.48;0.85;;;;;;;-1.18;100.00;99266.50;10425728;28;20045;-81
2023/03/26 17:21:31;;;;;;;1.88;0.90;;;;;;;-1.20;100.00;99287.44;10424024;28;20401;-82
2023/03/26 17:26:56;;;;;;;0.60;0.60;;;;;;;-1.25;100.00;99280.06;10425020;28;20042;-85
2023/03/26 17:32:07;;;;;;;1.02;0.77;;;;;;;-1.29;100.00;99260.88;10430697;28;20041;-81
2023/03/26 17:37:31;;;;;;;1.00;0.90;;;;;;;-1.30;100.00;99270.00;10444616;28;20051;-79
2023/03/26 17:42:34;;;;;;;0.75;0.60;;;;;;;-1.27;100.00;99283.00;10466635;28;20405;-81
2023/03/26 17:47:44;;;;;;;0.93;0.82;;;;;;;-1.32;100.00;99257.84;10469661;28;20037;-78
2023/03/26 17:52:56;;;;;;;0.85;0.60;;;;;;;-1.36;100.00;99264.78;10494362;28;20125;-80
2023/03/26 17:58:16;;;;;;;0.80;0.80;;;;;;;-1.37;100.00;99247.81;10483618;28;20494;-77
2023/03/26 18:03:48;;;;;;;1.08;0.70;;;;;;;-1.40;100.00;99253.66;10431282;28;20045;-80
2023/03/26 18:09:26;;;;;;;1.52;0.70;;;;;;;-1.40;100.00;99263.59;10451318;28;20492;-81
2023/03/26 18:14:31;;;;;;;1.10;0.80;;;;;;;-1.45;100.00;99301.16;10457231;28;20059;-82
2023/03/26 18:19:53;;;;;;;0.63;0.50;;;;;;;-1.47;100.00;99254.84;10465937;28;20044;-81
2023/03/26 18:25:00;;;;;;;0.80;0.70;;;;;;;-1.45;100.00;99252.72;10447844;28;20465;-81
2023/03/26 18:30:14;;;;;;;1.45;0.82;;;;;;;-1.43;100.00;99267.56;10427310;28;20059;-82
2023/03/26 18:35:19;;;;;;;0.88;0.88;;;;;;;-1.46;100.00;99273.44;10477082;28;20053;-80
2023/03/26 18:40:23;;;;;;;0.88;0.50;;;;;;;-1.49;100.00;99271.22;10459266;28;20049;-80
2023/03/26 18:45:28;;;;;;;0.65;0.57;;;;;;;-1.54;100.00;99277.31;10455710;28;20037;-82
2023/03/26 18:50:37;;;;;;;0.95;0.82;;;;;;;-1.54;100.00;99273.81;10456720;28;20059;-80
2023/03/26 18:55:39;;;;;;;1.75;0.95;;;;;;;-1.58;100.00;99276.13;10449060;28;20056;-82
2023/03/26 19:00:43;;;;;;;1.10;1.00;;;;;;;-1.60;100.00;99289.00;10417972;28;20068;-81
2023/03/26 19:05:45;;;;;;;0.93;0.80;;;;;;;-1.61;100.00;99270.41;10457379;28;20041;-80
2023/03/26 19:10:49;;;;;;;0.47;0.45;;;;;;;-1.62;100.00;99266.91;10447821;28;20060;-83
2023/03/26 19:15:53;;;;;;;0.75;0.75;;;;;;;-1.65;100.00;99272.75;10449838;28;20041;-82
2023/03/26 19:21:00;;;;;;;0.82;0.75;;;;;;;-1.71;100.00;99265.63;10444264;28;20343;-82
2023/03/26 19:26:05;;;;;;;0.80;0.80;;;;;;;-1.71;100.00;99262.94;10455866;28;20052;-82
2023/03/26 19:31:22;;;;;;;0.70;0.70;;;;;;;-1.74;100.00;99251.81;10471567;28;20052;-81
2023/03/26 19:36:30;;;;;;;0.70;0.70;;;;;;;-1.75;100.00;99248.31;10449261;28;20036;-83
2023/03/26 19:41:35;;;;;;;0.90;0.63;;;;;;;-1.75;100.00;99259.06;10445719;28;20052;-82
2023/03/26 19:46:38;;;;;;;1.58;0.90;;;;;;;-1.73;100.00;99248.09;10479881;28;20041;-83
2023/03/26 19:51:40;;;;;;;0.73;0.65;;;;;;;-1.79;100.00;99252.53;10408705;28;20053;-83
2023/03/26 19:56:43;;;;;;;1.15;0.98;;;;;;;-1.78;100.00;99259.53;10451065;28;20128;-81
2023/03/26 20:01:45;;;;;;;1.50;0.88;;;;;;;-1.74;100.00;99259.88;10451309;28;20057;-81
2023/03/26 20:06:48;;;;;;;0.80;0.80;;;;;;;-1.79;100.00;99247.16;10462754;28;20037;-80
2023/03/26 20:11:51;;;;;;;0.70;0.70;;;;;;;-1.88;100.00;99244.03;10455257;28;20033;-80
2023/03/26 20:16:53;;;;;;;1.10;1.00;;;;;;;-1.93;100.00;99256.50;10456839;28;20489;-81
2023/03/26 20:21:56;;;;;;;1.70;1.27;;;;;;;-1.90;100.00;99245.31;10452291;28;20044;-80
2023/03/26 20:26:58;;;;;;;1.42;1.02;;;;;;;-1.92;100.00;99245.50;10441921;28;20056;-82
2023/03/26 20:32:01;;;;;;;1.70;1.20;;;;;;;-1.90;100.00;99239.94;10443697;28;20053;-83
2023/03/26 20:37:03;;;;;;;1.17;1.00;;;;;;;-1.93;100.00;99233.13;10448446;28;20047;-81
2023/03/26 20:42:06;;;;;;;1.23;0.98;;;;;;;-1.91;100.00;99232.91;10454501;28;20485;-83
2023/03/26 20:47:11;;;;;;;1.02;0.80;;;;;;;-1.97;100.00;99229.28;10442050;28;20040;-83
2023/03/26 20:52:17;;;;;;;1.10;0.80;;;;;;;-1.98;100.00;99229.53;10443754;28;20033;-80
2023/03/26 20:57:19;;;;;;;0.82;0.82;;;;;;;-1.98;100.00;99240.28;10439078;28;20036;-85
2023/03/26 21:02:22;;;;;;;1.23;0.80;;;;;;;-2.00;100.00;99229.75;10437277;28;20047;-81
2023/03/26 21:07:24;;;;;;;1.02;0.57;;;;;;;-2.02;100.00;99231.88;10415284;28;20033;-81
2023/03/26 21:12:32;;;;;;;0.80;0.80;;;;;;;-2.04;100.00;99228.59;10403485;28;20038;-80
2023/03/26 21:17:35;;;;;;;0.65;0.65;;;;;;;-2.02;100.00;99247.16;10456159;28;20057;-82
2023/03/26 21:22:59;;;;;;;1.15;0.82;;;;;;;-2.12;100.00;99237.81;10441029;28;20041;-83
2023/03/26 21:28:04;;;;;;;0.80;0.80;;;;;;;-2.12;100.00;99231.63;10434794;28;20049;-81
2023/03/26 21:33:07;;;;;;;0.65;0.52;;;;;;;-2.16;100.00;99236.66;10423312;28;20052;-83
2023/03/26 21:38:10;;;;;;;0.77;0.65;;;;;;;-2.17;100.00;99229.63;10409260;28;20046;-82
2023/03/26 21:43:12;;;;;;;1.13;0.60;;;;;;;-2.16;100.00;99233.13;10423243;28;21131;-81
2023/03/26 21:48:15;;;;;;;0.40;0.40;;;;;;;-2.14;100.00;99237.22;10420742;28;20042;-82
2023/03/26 21:53:18;;;;;;;4.15;0.40;;;;;;;-2.15;100.00;99237.47;10446094;28;20069;-82
2023/03/26 21:58:45;;;;;;;0.43;0.43;;;;;;;-2.07;100.00;99234.44;10434970;28;20041;-80
2023/03/26 22:04:08;;;;;;;0.30;0.30;;;;;;;-2.08;100.00;99216.69;10451114;28;20413;-80
2023/03/26 22:09:11;;;;;;;0.65;0.57;;;;;;;-2.13;100.00;99220.03;10430866;28;20548;-82
2023/03/26 22:14:13;;;;;;;0.50;0.50;;;;;;;-2.10;100.00;99209.88;10443877;28;20038;-82
2023/03/26 22:19:15;;;;;;;0.40;0.40;;;;;;;-2.08;99.78;99223.91;10441080;28;20049;-81
2023/03/26 22:24:18;;;;;;;0.50;0.50;;;;;;;-2.15;99.55;99211.41;10418715;28;20034;-81
2023/03/26 22:29:20;;;;;;;0.60;0.60;;;;;;;-2.14;99.25;99214.91;10449294;28;20484;-81
2023/03/26 22:34:23;;;;;;;0.55;0.38;;;;;;;-2.13;99.73;99211.97;10440649;28;20045;-81
2023/03/26 22:39:26;;;;;;;1.08;0.70;;;;;;;-2.08;99.27;99223.91;10480275;28;20052;-80
2023/03/26 22:44:28;;;;;;;0.45;0.45;;;;;;;-2.10;99.36;99215.25;10465262;28;20481;-80
2023/03/26 22:49:31;;;;;;;0.00;0.00;;;;;;;-2.14;99.30;99222.97;10446410;28;20053;-80
2023/03/26 22:54:35;;;;;;;0.90;0.50;;;;;;;-2.14;98.87;99226.47;10477504;28;20049;-80
2023/03/26 22:59:37;;;;;;;0.50;0.50;;;;;;;-2.17;98.93;99223.44;10415656;28;20049;-81
2023/03/26 23:04:41;;;;;;;0.50;0.50;;;;;;;-2.22;98.83;99221.47;10413986;28;20042;-81
2023/03/26 23:09:44;;;;;;;0.73;0.40;;;;;;;-2.21;98.77;99216.91;10421568;28;20052;-82
2023/03/26 23:14:51;;;;;;;0.38;0.38;;;;;;;-2.20;98.79;99215.84;10487799;28;20508;-81
2023/03/26 23:19:53;;;;;;;0.93;0.57;;;;;;;-2.19;98.82;99212.94;10433917;28;20048;-81
2023/03/26 23:24:56;;;;;;;0.30;0.30;;;;;;;-2.17;98.55;99220.75;10454992;28;20053;-81
2023/03/26 23:29:58;;;;;;;0.10;0.10;;;;;;;-2.15;98.87;99215.97;10404302;28;20068;-81
2023/03/26 23:35:00;;;;;;;0.85;0.45;;;;;;;-2.13;98.57;99214.66;10468916;28;20135;-81
2023/03/26 23:40:08;;;;;;;0.60;0.50;;;;;;;-2.14;98.54;99218.41;10405039;28;20038;-82
2023/03/26 23:45:11;;;;;;;0.43;0.43;;;;;;;-2.18;98.32;99211.88;10424629;28;20057;-82
2023/03/26 23:50:13;;;;;;;0.95;0.43;;;;;;;-2.26;98.63;99214.88;10408664;28;20053;-82
2023/03/26 23:55:16;;;;;;;0.25;0.25;;;;;;;-2.28;98.69;99200.88;10403843;28;20046;-82
